White Water, CA

4:23 AM PDT on March 31, 2015 (GMT -0700)
RAWS | | Change Station
CLOSE
Current Station
Personal Weather Station
Location: White Water, CA
Elevation: 2545 ft
Nearby Weather Stations
Active Advisory: Wind Advisory

Elev 2545 ft 33.95 °N, 116.66 °W | Updated 33 minutes ago

Clear
Clear
66 °F
Feels Like 66 °F
N
19
Wind Variable Wind from West
Gusts 30.0 mph

Today
High -- | Low -- °F
--% Chance of Precip.
Yesterday
High -- | Low -- °F
Precip. -- in
6:35 AM 7:06 PM
Waxing Gibbous, 86% visible
Pressure 29.87 in
Visibility 10.0 miles
Clouds Clear
Dew Point 21 °F
Humidity 18%
Rainfall in
Snow Depth Not available.
UV 0 out of 12
Pollen 9.50 out of 12
Air Quality Not available.
Flu Activity Not available.
METAR KPSP 311053Z AUTO 00000KT 10SM CLR 20/07 A2988 RMK AO2 SLP115 T02000067 TSNO

More Conditions Fewer Conditions

Pressure 29.87 in
Visibility 10.0 miles
Clouds Clear
Dew Point 21 °F
Humidity 18%
Rainfall in
Snow Depth Not available.
UV 0 out of 12
Pollen 9.50 out of 12
Air Quality Not available.
Flu Activity Not available.
METAR KPSP 311053Z AUTO 00000KT 10SM CLR 20/07 A2988 RMK AO2 SLP115 T02000067 TSNO

More Conditions Fewer Conditions

10-Day Weather Forecast

Almanac

Astronomy

Mar. 31, 2015 Rise Set
Actual Time
Civil Twilight
Nautical Twilight
Astronomical Twilight
Moon
Length of Visible Light
Length of Day
Tomorrow will be .
, % of the Moon is Illuminated

Today's Extremes

State Highs State Lows

Community

WunderPhotos

Upload Photos

1,809,743 photos uploaded!

WunderBlogs® & News

Nearby

Air Quality

  Air Quality AQ Index Pollutant
Not available.

Snow Depth

Station Depth Elevation

Earthquake Activity

City Distance Mag. Time & Date
Minimum magnitude displayed is 2.5.

Coastal Water Temperatures

Place Temperature

Stations

Nearby Weather Stations

Station Location Temp. Windchill Dew Point Humidity Wind Precip. Elev Updated Type
                   
Wind Advisory
Statement as of 3:05 AM PDT on March 31, 2015

... Wind Advisory in effect from 4 PM this afternoon to 3 am PDT
Wednesday...

The National Weather Service in San Diego has issued a Wind
Advisory... which is in effect from 4 PM this afternoon to 3 am
PDT Wednesday.

* Winds... areas of west winds 20 to 30 mph with gusts to 45 mph.
Isolated gusts to 55 mph in the northern Coachella Valley.

* Location... strongest winds near the desert slopes of the
mountains... and in the northern and eastern portions of the
Coachella Valley.

* Visibility... locally reduced in blowing sand and blowing dust.

Precautionary/preparedness actions...

A Wind Advisory means that winds of 35 mph are expected. Winds
this strong can make driving difficult... especially for high
profile vehicles. Use extra caution.